Time,TemperatureF,DewpointF,PressureIn,WindDirection,WindDirectionDegrees,WindSpeedMPH,WindSpeedGustMPH,Humidity,HourlyPrecipIn,Conditions,Clouds,dailyrainin,SoftwareType,DateUTC
2013-01-09 00:05:00,43.7,40.1,30.40,South,169,0.0,0.0,87,0.00,,,0.00,Wunderground v.1.15,2013-01-09 05:05:00,
2013-01-09 00:15:00,43.8,40.2,30.40,South,169,0.0,0.0,87,0.00,,,0.00,Wunderground v.1.15,2013-01-09 05:15:00,
2013-01-09 00:25:00,43.9,40.3,30.40,South,169,0.0,0.0,87,0.00,,,0.00,Wunderground v.1.15,2013-01-09 05:25:00,
2013-01-09 00:30:00,43.9,40.3,30.40,South,169,0.0,0.0,87,0.00,,,0.00,Wunderground v.1.15,2013-01-09 05:30:00,
2013-01-09 00:40:00,43.8,40.2,30.39,South,169,0.0,0.0,87,0.00,,,0.00,Wunderground v.1.15,2013-01-09 05:40:00,
2013-01-09 00:50:00,43.6,40.0,30.39,South,169,0.0,0.0,87,0.00,,,0.00,Wunderground v.1.15,2013-01-09 05:50:00,
2013-01-09 01:00:00,43.2,39.6,30.39,South,169,0.0,0.0,87,0.00,,,0.00,Wunderground v.1.15,2013-01-09 06:00:00,
2013-01-09 01:10:00,42.7,39.1,30.39,South,171,0.0,0.0,87,0.00,,,0.00,Wunderground v.1.15,2013-01-09 06:10:00,
2013-01-09 01:25:00,42.0,38.7,30.39,South,170,0.0,0.0,88,0.00,,,0.00,Wunderground v.1.15,2013-01-09 06:25:00,
2013-01-09 01:35:00,41.7,38.4,30.38,South,170,0.0,0.0,88,0.00,,,0.00,Wunderground v.1.15,2013-01-09 06:35:00,
2013-01-09 01:45:00,41.3,38.3,30.38,South,169,0.0,0.0,89,0.00,,,0.00,Wunderground v.1.15,2013-01-09 06:45:00,
2013-01-09 02:00:00,40.8,37.8,30.38,South,169,0.0,0.0,89,0.00,,,0.00,Wunderground v.1.15,2013-01-09 07:00:00,
2013-01-09 02:10:00,40.5,37.5,30.38,South,169,0.0,0.0,89,0.00,,,0.00,Wunderground v.1.15,2013-01-09 07:10:00,
2013-01-09 02:15:00,40.3,37.6,30.38,South,169,0.0,0.0,90,0.00,,,0.00,Wunderground v.1.15,2013-01-09 07:15:00,
2013-01-09 02:25:00,40.1,37.4,30.39,South,169,0.0,0.0,90,0.00,,,0.00,Wunderground v.1.15,2013-01-09 07:25:00,
2013-01-09 02:35:00,39.9,37.2,30.40,South,169,0.0,0.0,90,0.00,,,0.00,Wunderground v.1.15,2013-01-09 07:35:00,
2013-01-09 02:45:00,39.6,36.9,30.40,South,169,0.0,0.0,90,0.00,,,0.00,Wunderground v.1.15,2013-01-09 07:45:00,
2013-01-09 02:55:00,39.5,37.1,30.41,South,169,0.0,0.0,91,0.00,,,0.00,Wunderground v.1.15,2013-01-09 07:55:00,
2013-01-09 03:00:00,39.4,37.0,30.41,South,169,0.0,0.0,91,0.00,,,0.00,Wunderground v.1.15,2013-01-09 08:00:00,
2013-01-09 03:15:00,39.2,36.8,30.41,South,169,0.0,0.0,91,0.00,,,0.00,Wunderground v.1.15,2013-01-09 08:15:00,
2013-01-09 03:20:00,39.2,37.1,30.41,South,169,0.0,0.0,92,0.00,,,0.00,Wunderground v.1.15,2013-01-09 08:20:00,
2013-01-09 03:30:00,39.2,37.1,30.41,South,169,0.0,0.0,92,0.00,,,0.00,Wunderground v.1.15,2013-01-09 08:30:00,
2013-01-09 03:40:00,39.3,37.2,30.41,South,169,0.0,0.0,92,0.00,,,0.00,Wunderground v.1.15,2013-01-09 08:40:00,
2013-01-09 03:50:00,39.3,37.2,30.40,South,169,0.0,0.0,92,0.00,,,0.00,Wunderground v.1.15,2013-01-09 08:50:00,
2013-01-09 04:05:00,39.2,37.1,30.40,South,169,0.0,0.0,92,0.00,,,0.00,Wunderground v.1.15,2013-01-09 09:05:00,
2013-01-09 04:15:00,39.0,36.9,30.39,South,169,0.0,0.0,92,0.00,,,0.00,Wunderground v.1.15,2013-01-09 09:15:00,
2013-01-09 04:25:00,38.8,36.7,30.39,South,169,0.0,0.0,92,0.00,,,0.00,Wunderground v.1.15,2013-01-09 09:25:00,
2013-01-09 04:40:00,38.4,36.3,30.39,SSE,168,0.0,0.0,92,0.00,,,0.00,Wunderground v.1.15,2013-01-09 09:40:00,
2013-01-09 04:50:00,38.2,36.1,30.39,South,169,0.0,0.0,92,0.00,,,0.00,Wunderground v.1.15,2013-01-09 09:50:00,
2013-01-09 05:05:00,37.9,35.8,30.39,South,169,0.0,0.0,92,0.00,,,0.00,Wunderground v.1.15,2013-01-09 10:05:00,
2013-01-09 05:20:00,37.6,35.5,30.40,South,169,0.0,0.0,92,0.00,,,0.00,Wunderground v.1.15,2013-01-09 10:20:00,
2013-01-09 05:30:00,37.5,35.4,30.40,South,169,0.0,0.0,92,0.00,,,0.00,Wunderground v.1.15,2013-01-09 10:30:00,
2013-01-09 05:40:00,37.4,35.3,30.40,South,169,0.0,0.0,92,0.00,,,0.00,Wunderground v.1.15,2013-01-09 10:40:00,
2013-01-09 05:55:00,37.2,35.4,30.41,South,169,0.0,0.0,93,0.00,,,0.00,Wunderground v.1.15,2013-01-09 10:55:00,
2013-01-09 06:00:00,37.1,35.3,30.40,South,169,0.0,0.0,93,0.00,,,0.00,Wunderground v.1.15,2013-01-09 11:00:00,
2013-01-09 06:20:00,36.8,35.0,30.41,South,169,0.0,0.0,93,0.00,,,0.00,Wunderground v.1.15,2013-01-09 11:20:00,
2013-01-09 06:30:00,36.6,34.8,30.41,South,169,0.0,0.0,93,0.00,,,0.00,Wunderground v.1.15,2013-01-09 11:30:00,
2013-01-09 06:40:00,36.5,34.7,30.41,South,169,0.0,0.0,93,0.00,,,0.00,Wunderground v.1.15,2013-01-09 11:40:00,
2013-01-09 06:55:00,36.4,34.6,30.41,South,169,0.0,0.0,93,0.00,,,0.00,Wunderground v.1.15,2013-01-09 11:55:00,
2013-01-09 07:05:00,36.4,34.6,30.41,South,169,0.0,0.0,93,0.00,,,0.00,Wunderground v.1.15,2013-01-09 12:05:00,
2013-01-09 07:15:00,36.3,34.5,30.42,South,169,0.0,0.0,93,0.00,,,0.00,Wunderground v.1.15,2013-01-09 12:15:00,
2013-01-09 07:30:00,36.1,34.3,30.42,South,169,0.0,0.0,93,0.00,,,0.00,Wunderground v.1.15,2013-01-09 12:30:00,
2013-01-09 07:40:00,36.0,34.2,30.43,South,169,0.0,0.0,93,0.00,,,0.00,Wunderground v.1.15,2013-01-09 12:40:00,
2013-01-09 07:55:00,36.0,34.2,30.43,South,169,0.0,0.0,93,0.00,,,0.00,Wunderground v.1.15,2013-01-09 12:55:00,
2013-01-09 08:05:00,36.2,34.6,30.43,South,169,0.0,0.0,94,0.00,,,0.00,Wunderground v.1.15,2013-01-09 13:05:00,
2013-01-09 08:20:00,36.8,35.2,30.44,South,169,0.0,0.0,94,0.00,,,0.00,Wunderground v.1.15,2013-01-09 13:20:00,
2013-01-09 08:30:00,37.4,35.8,30.44,South,169,0.0,0.0,94,0.00,,,0.00,Wunderground v.1.15,2013-01-09 13:30:00,
2013-01-09 08:40:00,38.3,37.0,30.44,South,169,0.0,0.0,95,0.00,,,0.00,Wunderground v.1.15,2013-01-09 13:40:00,
2013-01-09 08:50:00,39.0,37.7,30.44,SSE,168,0.0,0.0,95,0.00,,,0.00,Wunderground v.1.15,2013-01-09 13:50:00,
2013-01-09 09:00:00,39.8,38.5,30.44,South,169,0.0,0.0,95,0.00,,,0.00,Wunderground v.1.15,2013-01-09 14:00:00,
2013-01-09 09:10:00,40.7,39.4,30.44,South,170,0.0,0.0,95,0.00,,,0.00,Wunderground v.1.15,2013-01-09 14:10:00,
2013-01-09 09:35:00,44.0,41.5,30.44,South,170,0.0,0.0,91,0.00,,,0.00,Wunderground v.1.15,2013-01-09 14:35:00,
2013-01-09 09:45:00,45.9,42.2,30.44,South,169,0.0,0.0,87,0.00,,,0.00,Wunderground v.1.15,2013-01-09 14:45:00,
2013-01-09 09:55:00,47.3,42.7,30.45,South,169,0.0,0.0,84,0.00,,,0.00,Wunderground v.1.15,2013-01-09 14:55:00,
2013-01-09 10:10:00,49.1,43.8,30.45,South,169,0.0,0.0,82,0.00,,,0.00,Wunderground v.1.15,2013-01-09 15:10:00,
2013-01-09 10:20:00,50.5,44.9,30.45,South,169,0.0,0.0,81,0.00,,,0.00,Wunderground v.1.15,2013-01-09 15:20:00,
2013-01-09 10:30:00,52.3,45.0,30.45,South,169,0.0,0.0,76,0.00,,,0.00,Wunderground v.1.15,2013-01-09 15:30:00,
2013-01-09 10:45:00,54.7,46.2,30.45,SSE,165,0.0,0.0,73,0.00,,,0.00,Wunderground v.1.15,2013-01-09 15:45:00,
2013-01-09 10:55:00,56.0,46.4,30.44,SSE,165,0.0,0.0,70,0.00,,,0.00,Wunderground v.1.15,2013-01-09 15:55:00,
2013-01-09 11:10:00,57.8,48.5,30.44,SSE,166,0.0,0.0,71,0.00,,,0.00,Wunderground v.1.15,2013-01-09 16:10:00,
2013-01-09 11:20:00,58.5,49.1,30.44,SSE,166,0.0,0.0,71,0.00,,,0.00,Wunderground v.1.15,2013-01-09 16:20:00,
2013-01-09 11:30:00,59.3,50.3,30.43,WSW,240,0.0,0.0,72,0.00,,,0.00,Wunderground v.1.15,2013-01-09 16:30:00,
2013-01-09 11:45:00,60.3,50.9,30.43,West,263,0.0,0.0,71,0.00,,,0.00,Wunderground v.1.15,2013-01-09 16:45:00,
2013-01-09 11:55:00,61.5,51.6,30.42,West,263,0.0,0.0,70,0.00,,,0.00,Wunderground v.1.15,2013-01-09 16:55:00,
2013-01-09 12:05:00,62.4,51.7,30.41,WSW,242,0.0,0.0,68,0.00,,,0.00,Wunderground v.1.15,2013-01-09 17:05:00,
2013-01-09 12:15:00,62.9,52.6,30.40,WSW,243,0.0,0.0,69,0.00,,,0.00,Wunderground v.1.15,2013-01-09 17:15:00,
2013-01-09 12:30:00,63.6,52.8,30.38,West,259,0.0,0.0,68,0.00,,,0.00,Wunderground v.1.15,2013-01-09 17:30:00,
2013-01-09 12:45:00,64.8,53.2,30.38,NNW,335,0.0,0.0,66,0.00,,,0.00,Wunderground v.1.15,2013-01-09 17:45:00,
2013-01-09 12:55:00,65.4,53.3,30.38,WSW,243,0.0,0.0,65,0.00,,,0.00,Wunderground v.1.15,2013-01-09 17:55:00,
2013-01-09 13:05:00,66.1,53.6,30.37,WSW,238,0.0,0.0,64,0.00,,,0.00,Wunderground v.1.15,2013-01-09 18:05:00,
2013-01-09 13:20:00,67.4,53.5,30.36,WSW,256,0.0,0.0,61,0.00,,,0.00,Wunderground v.1.15,2013-01-09 18:20:00,
2013-01-09 13:30:00,67.7,52.9,30.36,SSE,165,0.0,1.0,59,0.00,,,0.00,Wunderground v.1.15,2013-01-09 18:30:00,
2013-01-09 13:45:00,67.2,52.4,30.36,WSW,255,0.0,0.0,59,0.00,,,0.00,Wunderground v.1.15,2013-01-09 18:45:00,
2013-01-09 13:55:00,66.7,51.9,30.35,WSW,255,0.0,0.0,59,0.00,,,0.00,Wunderground v.1.15,2013-01-09 18:55:00,
2013-01-09 14:05:00,66.7,51.9,30.35,WSW,255,0.0,0.0,59,0.00,,,0.00,Wunderground v.1.15,2013-01-09 19:05:00,
2013-01-09 14:15:00,66.6,52.3,30.35,West,274,0.0,0.0,60,0.00,,,0.00,Wunderground v.1.15,2013-01-09 19:15:00,
2013-01-09 14:20:00,66.6,51.8,30.35,West,277,0.0,0.0,59,0.00,,,0.00,Wunderground v.1.15,2013-01-09 19:20:00,
2013-01-09 14:30:00,66.3,52.4,30.35,West,276,0.0,0.0,61,0.00,,,0.00,Wunderground v.1.15,2013-01-09 19:30:00,
2013-01-09 14:45:00,66.1,52.3,30.35,NW,305,0.0,0.0,61,0.00,,,0.00,Wunderground v.1.15,2013-01-09 19:45:00,
2013-01-09 14:55:00,65.5,51.7,30.36,NW,305,0.0,0.0,61,0.00,,,0.00,Wunderground v.1.15,2013-01-09 19:55:00,
2013-01-09 15:10:00,64.8,51.5,30.36,NW,305,0.0,0.0,62,0.00,,,0.00,Wunderground v.1.15,2013-01-09 20:10:00,
2013-01-09 15:20:00,64.5,52.0,30.36,NW,305,0.0,0.0,64,0.00,,,0.00,Wunderground v.1.15,2013-01-09 20:20:00,
2013-01-09 15:25:00,64.3,52.3,30.36,NW,305,0.0,0.0,65,0.00,,,0.00,Wunderground v.1.15,2013-01-09 20:25:00,
2013-01-09 15:35:00,64.1,52.1,30.37,NW,305,0.0,0.0,65,0.00,,,0.00,Wunderground v.1.15,2013-01-09 20:35:00,
2013-01-09 15:45:00,63.9,51.9,30.36,NW,305,0.0,0.0,65,0.00,,,0.00,Wunderground v.1.15,2013-01-09 20:45:00,
2013-01-09 16:00:00,63.8,51.8,30.36,NW,305,0.0,0.0,65,0.00,,,0.00,Wunderground v.1.15,2013-01-09 21:00:00,
2013-01-09 16:10:00,63.7,52.5,30.36,NW,305,0.0,0.0,67,0.00,,,0.00,Wunderground v.1.15,2013-01-09 21:10:00,
2013-01-09 16:20:00,63.1,52.8,30.36,NW,305,0.0,0.0,69,0.00,,,0.00,Wunderground v.1.15,2013-01-09 21:20:00,
2013-01-09 16:35:00,62.1,52.6,30.36,NW,305,0.0,0.0,71,0.00,,,0.00,Wunderground v.1.15,2013-01-09 21:35:00,
2013-01-09 16:45:00,61.5,52.4,30.36,NW,304,0.0,0.0,72,0.00,,,0.00,Wunderground v.1.15,2013-01-09 21:45:00,
2013-01-09 16:55:00,60.9,52.2,30.36,NW,305,0.0,0.0,73,0.00,,,0.00,Wunderground v.1.15,2013-01-09 21:55:00,
2013-01-09 17:05:00,60.4,52.4,30.36,NW,305,0.0,0.0,75,0.00,,,0.00,Wunderground v.1.15,2013-01-09 22:05:00,
2013-01-09 17:15:00,59.8,52.2,30.37,NW,304,0.0,0.0,76,0.00,,,0.00,Wunderground v.1.15,2013-01-09 22:15:00,
2013-01-09 17:25:00,59.3,52.1,30.37,NW,304,0.0,0.0,77,0.00,,,0.00,Wunderground v.1.15,2013-01-09 22:25:00,
2013-01-09 17:40:00,58.5,52.0,30.37,NW,305,0.0,0.0,79,0.00,,,0.00,Wunderground v.1.15,2013-01-09 22:40:00,
2013-01-09 17:50:00,57.9,51.8,30.37,NW,305,0.0,0.0,80,0.00,,,0.00,Wunderground v.1.15,2013-01-09 22:50:00,
2013-01-09 18:00:00,57.6,51.8,30.36,NW,305,0.0,0.0,81,0.00,,,0.00,Wunderground v.1.15,2013-01-09 23:00:00,
2013-01-09 18:10:00,57.3,51.9,30.37,NW,305,0.0,0.0,82,0.00,,,0.00,Wunderground v.1.15,2013-01-09 23:10:00,
2013-01-09 18:25:00,56.8,51.7,30.36,NW,304,0.0,0.0,83,0.00,,,0.00,Wunderground v.1.15,2013-01-09 23:25:00,
2013-01-09 18:40:00,56.3,51.5,30.35,NW,305,0.0,0.0,84,0.00,,,0.00,Wunderground v.1.15,2013-01-09 23:40:00,
2013-01-09 18:50:00,56.1,51.3,30.35,NW,304,0.0,0.0,84,0.00,,,0.00,Wunderground v.1.15,2013-01-09 23:50:00,
2013-01-09 19:00:00,55.8,51.4,30.35,NW,305,0.0,0.0,85,0.00,,,0.00,Wunderground v.1.15,2013-01-10 00:00:00,
2013-01-09 19:10:00,55.4,51.0,30.36,NW,305,0.0,0.0,85,0.00,,,0.00,Wunderground v.1.15,2013-01-10 00:10:00,
2013-01-09 19:25:00,54.5,50.4,30.37,NW,304,0.0,0.0,86,0.00,,,0.00,Wunderground v.1.15,2013-01-10 00:25:00,
2013-01-09 19:35:00,54.1,50.0,30.37,NW,305,0.0,0.0,86,0.00,,,0.00,Wunderground v.1.15,2013-01-10 00:35:00,
2013-01-09 19:45:00,53.6,49.8,30.37,NW,305,0.0,0.0,87,0.00,,,0.00,Wunderground v.1.15,2013-01-10 00:45:00,
2013-01-09 20:00:00,52.9,49.4,30.38,NW,305,0.0,0.0,88,0.00,,,0.00,Wunderground v.1.15,2013-01-10 01:00:00,
2013-01-09 20:10:00,52.4,48.9,30.38,NW,304,0.0,0.0,88,0.00,,,0.00,Wunderground v.1.15,2013-01-10 01:10:00,
2013-01-09 20:25:00,51.9,48.8,30.38,NW,304,0.0,0.0,89,0.00,,,0.00,Wunderground v.1.15,2013-01-10 01:25:00,
2013-01-09 20:35:00,51.4,48.3,30.38,NW,304,0.0,0.0,89,0.00,,,0.00,Wunderground v.1.15,2013-01-10 01:35:00,
2013-01-09 20:50:00,50.8,48.0,30.39,NW,305,0.0,0.0,90,0.00,,,0.00,Wunderground v.1.15,2013-01-10 01:50:00,
2013-01-09 21:00:00,50.6,48.1,30.39,NW,305,0.0,0.0,91,0.00,,,0.00,Wunderground v.1.15,2013-01-10 02:00:00,
2013-01-09 21:10:00,50.2,47.4,30.39,NW,304,0.0,0.0,90,0.00,,,0.00,Wunderground v.1.15,2013-01-10 02:10:00,
2013-01-09 21:20:00,49.9,47.4,30.39,NW,305,0.0,0.0,91,0.00,,,0.00,Wunderground v.1.15,2013-01-10 02:20:00,
2013-01-09 21:30:00,49.6,47.1,30.40,NW,305,0.0,0.0,91,0.00,,,0.00,Wunderground v.1.15,2013-01-10 02:30:00,
2013-01-09 21:40:00,49.3,46.8,30.40,NW,305,0.0,0.0,91,0.00,,,0.00,Wunderground v.1.15,2013-01-10 02:40:00,
2013-01-09 21:55:00,49.0,46.8,30.40,NW,304,0.0,0.0,92,0.00,,,0.00,Wunderground v.1.15,2013-01-10 02:55:00,
2013-01-09 22:05:00,48.7,46.5,30.40,NW,305,0.0,0.0,92,0.00,,,0.00,Wunderground v.1.15,2013-01-10 03:05:00,
2013-01-09 22:15:00,48.4,46.2,30.40,NW,305,0.0,0.0,92,0.00,,,0.00,Wunderground v.1.15,2013-01-10 03:15:00,
2013-01-09 22:25:00,48.4,46.2,30.40,NW,304,0.0,0.0,92,0.00,,,0.00,Wunderground v.1.15,2013-01-10 03:25:00,
2013-01-09 22:40:00,48.0,45.8,30.40,NW,305,0.0,0.0,92,0.00,,,0.00,Wunderground v.1.15,2013-01-10 03:40:00,
2013-01-09 22:50:00,47.9,46.0,30.40,NW,305,0.0,0.0,93,0.00,,,0.00,Wunderground v.1.15,2013-01-10 03:50:00,
2013-01-09 23:00:00,47.9,46.0,30.41,NW,305,0.0,0.0,93,0.00,,,0.00,Wunderground v.1.15,2013-01-10 04:00:00,
2013-01-09 23:10:00,48.5,46.9,30.41,NW,305,0.0,0.0,94,0.00,,,0.00,Wunderground v.1.15,2013-01-10 04:10:00,
2013-01-09 23:20:00,48.8,47.2,30.41,NW,305,0.0,0.0,94,0.00,,,0.00,Wunderground v.1.15,2013-01-10 04:20:00,
2013-01-09 23:30:00,48.8,46.9,30.41,NW,305,0.0,0.0,93,0.00,,,0.00,Wunderground v.1.15,2013-01-10 04:30:00,
2013-01-09 23:35:00,48.9,47.0,30.41,NW,305,0.0,0.0,93,0.00,,,0.00,Wunderground v.1.15,2013-01-10 04:35:00,
2013-01-09 23:45:00,49.1,47.2,30.41,NW,304,0.0,0.0,93,0.00,,,0.00,Wunderground v.1.15,2013-01-10 04:45:00,